METAR Data
IDs: Format: Raw Decoded Include TAF

Data at: 1454 UTC 18 Aug 2019

PFCL 181356Z AUTO 01016G22KT 10SM CLR 15/08 A3024 RMK AO2 PK WND 35028/1324 SLP232 T01500083 TSNO
PFCL 181156Z AUTO 01021G27KT 10SM CLR 14/09 A3024 RMK AO2 PK WND 36027/1156 SLP233 T01440094 10161 20122 58018 TSNO
PFCL 181056Z AUTO 01012KT 10SM CLR 13/09 A3027 RMK AO2 SLP242 T01280089 TSNO
PFCL 180956Z AUTO 02013KT 10SM CLR 14/09 A3028 RMK AO2 SLP245 T01390089 TSNO
PFCL 180856Z AUTO VRB04KT 10SM CLR 13/09 A3029 RMK AO2 SLP251 T01330089 402170117 58002 TSNO
PFCL 180756Z AUTO 36010KT 10SM CLR 16/11 A3030 RMK AO2 SLP252 T01610106 TSNO
PFCL 180656Z AUTO 01006KT 10SM CLR 14/10 A3030 RMK AO2 SLP253 T01390100 TSNO
PFCL 180556Z AUTO 03008KT 10SM CLR 16/09 A3030 RMK AO2 SLP253 T01610094 10217 20161 58001 TSNO
PFCL 180456Z AUTO 02010KT 10SM CLR 19/11 A3031 RMK AO2 SLP255 T01890106 TSNO
PFCL 180356Z AUTO 01013KT 10SM CLR 20/12 A3031 RMK AO2 SLP255 T02000117 TSNO
PFCL 180256Z AUTO 36014KT 10SM CLR 21/09 A3031 RMK AO2 SLP255 T02110094 56012 TSNO
PFCL 180056Z AUTO 02013KT 10SM CLR 22/08 A3033 RMK AO2 SLP262 T02170078 TSNO
PFCL 172356Z AUTO 02013KT 10SM CLR 21/10 A3034 RMK AO2 SLP266 T02110100 10211 20161 56014 TSNO
PFCL 172256Z AUTO 36010KT 10SM CLR 21/13 A3036 RMK AO2 SLP271 T02060128 TSNO
PFCL 172156Z AUTO 01013KT 10SM CLR 20/13 A3036 RMK AO2 SLP274 T02000133 TSNO
PFCL 172056Z AUTO 36009KT 10SM CLR 19/14 A3038 RMK AO2 SLP280 T01890144 56008 TSNO
PFCL 172036Z AUTO 36008KT 10SM SCT025 19/14 A3038 RMK AO2 TSNO
PFCL 171956Z AUTO 02007KT 10SM OVC023 18/14 A3038 RMK AO2 SLP280 T01830144 TSNO
PFCL 171910Z AUTO 01007KT 10SM BKN020 OVC035 17/14 A3040 RMK AO2 TSNO
PFCL 171856Z AUTO 01004KT 10SM FEW020 OVC035 17/14 A3040 RMK AO2 SLP287 T01720144 TSNO
PFCL 171756Z AUTO 34004KT 10SM BKN033 OVC042 16/14 A3040 RMK AO2 SLP288 T01610139 10167 20117 58002 TSNO
PFCL 171717Z AUTO 33004KT 10SM OVC031 16/14 A3041 RMK AO2 TSNO
PFCL 171656Z AUTO 36003KT 10SM OVC027 16/14 A3041 RMK AO2 SLP290 T01560139 TSNO
PFCL 171556Z AUTO 33005KT 10SM OVC041 14/14 A3041 RMK AO2 SLP290 T01390139 TSNO
PFCL 171456Z AUTO 05003KT 10SM FEW043 OVC055 13/12 A3041 RMK AO2 SLP290 T01280122 51005 TSNO
PFCL 171356Z AUTO 00000KT 10SM SCT060 12/12 A3041 RMK AO2 SLP289 T01170117 TSNO
PFCL 171256Z AUTO 00000KT 10SM CLR 13/12 A3040 RMK AO2 SLP286 T01280117 TSNO
PFCL 171156Z AUTO 05006KT 10SM CLR 13/12 A3039 RMK AO2 SLP284 T01280117 10178 20117 50001 TSNO
PFCL 171056Z AUTO 00000KT 10SM CLR 12/11 A3040 RMK AO2 SLP286 T01220111 TSNO
PFCL 170956Z AUTO 02005KT 10SM CLR 16/13 A3039 RMK AO2 SLP284 T01560128 TSNO
PFCL 170856Z AUTO 29006KT 10SM CLR 15/13 A3039 RMK AO2 SLP283 T01500133 402170122 53004 TSNO
PFCL 170756Z AUTO 28006KT 10SM CLR 16/13 A3038 RMK AO2 SLP281 T01560133 TSNO
PFCL 170656Z AUTO 25005KT 10SM CLR 17/14 A3038 RMK AO2 SLP279 T01670139 TSNO
PFCL 170556Z AUTO 26011KT 10SM CLR 18/14 A3038 RMK AO2 SLP279 T01780144 10211 20178 56009 TSNO
PFCL 170356Z AUTO 25010G17KT 10SM CLR 19/15 A3039 RMK AO2 SLP284 T01940150 TSNO
PFCL 170256Z AUTO 26013KT 10SM CLR 20/15 A3040 RMK AO2 SLP288 T02000150 57013 TSNO